createdAt,value
2022-07-25T00:02:03.500Z,22.30
2022-07-25T00:04:49.465Z,22.20
2022-07-25T00:07:35.231Z,22.20
2022-07-25T00:10:21.175Z,22.20
2022-07-25T00:13:06.775Z,22.00
2022-07-25T00:15:52.673Z,21.90
2022-07-25T00:18:38.481Z,21.90
2022-07-25T00:21:24.143Z,21.90
2022-07-25T00:24:10.577Z,21.90
2022-07-25T00:26:56.219Z,21.90
2022-07-25T00:29:41.845Z,21.80
2022-07-25T00:32:27.625Z,21.70
2022-07-25T00:35:13.273Z,21.70
2022-07-25T00:37:58.966Z,21.60
2022-07-25T00:40:44.973Z,21.60
2022-07-25T00:43:34.617Z,21.60
2022-07-25T00:46:20.600Z,21.60
2022-07-25T00:49:07.847Z,21.70
2022-07-25T00:51:54.355Z,21.70
2022-07-25T00:54:40.560Z,21.70
2022-07-25T00:57:26.477Z,21.70
2022-07-25T01:00:15.161Z,21.70
2022-07-25T01:03:01.036Z,21.70
2022-07-25T01:05:51.606Z,21.80
2022-07-25T01:08:39.609Z,21.90
2022-07-25T01:11:25.941Z,21.90
2022-07-25T01:14:12.056Z,21.90
2022-07-25T01:16:58.084Z,21.80
2022-07-25T01:19:43.707Z,21.80
2022-07-25T01:22:29.305Z,21.80
2022-07-25T01:25:15.750Z,21.80
2022-07-25T01:28:01.690Z,21.70
2022-07-25T01:30:47.443Z,21.70
2022-07-25T01:33:33.147Z,21.70
2022-07-25T01:36:19.172Z,21.70
2022-07-25T01:39:04.768Z,21.70
2022-07-25T01:41:50.362Z,21.50
2022-07-25T01:44:38.742Z,21.50
2022-07-25T01:47:24.619Z,21.60
2022-07-25T01:50:10.939Z,21.70
2022-07-25T01:52:56.735Z,21.60
2022-07-25T01:55:44.733Z,21.50
2022-07-25T01:58:32.253Z,21.50
2022-07-25T02:01:19.456Z,21.30
2022-07-25T02:04:08.242Z,21.20
2022-07-25T02:06:54.426Z,21.00
2022-07-25T02:09:41.390Z,20.90
2022-07-25T02:12:27.157Z,20.90
2022-07-25T02:15:12.955Z,20.90
2022-07-25T02:17:58.970Z,20.80
2022-07-25T06:22:53.598Z,23.80
2022-07-25T06:25:39.348Z,24.00
2022-07-25T06:28:24.951Z,24.20
2022-07-25T06:31:11.141Z,24.30
2022-07-25T06:34:28.633Z,24.40
2022-07-25T06:37:41.377Z,24.70
2022-07-25T06:41:06.908Z,24.80
2022-07-25T06:44:21.906Z,25.10
2022-07-25T06:51:14.855Z,25.70
2022-07-25T06:54:01.086Z,25.80
2022-07-25T06:56:48.963Z,26.10
2022-07-25T06:59:35.320Z,26.20
2022-07-25T07:06:02.743Z,26.60
2022-07-25T07:08:50.004Z,26.70
2022-07-25T07:11:36.629Z,26.80
2022-07-25T07:14:23.202Z,26.90
2022-07-25T07:17:15.882Z,27.00
2022-07-25T07:20:02.319Z,27.00
2022-07-25T07:22:49.542Z,27.20
2022-07-25T07:31:05.547Z,27.60
2022-07-25T07:34:35.388Z,27.70
2022-07-25T07:37:21.478Z,27.80
2022-07-25T07:40:17.112Z,27.90
2022-07-25T07:43:04.276Z,28.00
2022-07-25T07:45:59.508Z,28.30
2022-07-25T07:53:57.257Z,28.40
2022-07-25T07:56:44.129Z,28.90
2022-07-25T07:59:30.420Z,29.10
2022-07-25T08:03:08.752Z,29.30
2022-07-25T08:06:20.165Z,29.40
2022-07-25T08:09:32.138Z,29.70
2022-07-25T08:12:18.537Z,29.90
2022-07-25T08:15:04.625Z,30.20
2022-07-25T08:18:41.361Z,30.40
2022-07-25T08:22:43.251Z,30.50
2022-07-25T08:25:56.155Z,30.60
2022-07-25T08:28:43.776Z,30.90
2022-07-25T08:31:31.125Z,30.90
2022-07-25T08:34:44.809Z,30.90
2022-07-25T08:37:39.633Z,30.90
2022-07-25T08:40:30.827Z,30.80
2022-07-25T08:43:18.225Z,30.90
2022-07-25T08:46:06.086Z,31.00
2022-07-25T08:48:52.736Z,31.30
2022-07-25T08:51:42.845Z,31.40
2022-07-25T08:54:28.953Z,31.50
2022-07-25T08:57:14.832Z,31.70
2022-07-25T09:00:00.826Z,31.80
2022-07-25T09:02:57.893Z,31.90
2022-07-25T09:05:43.834Z,32.00
2022-07-25T09:08:29.366Z,32.10
2022-07-25T09:11:25.497Z,32.10
2022-07-25T09:14:15.303Z,32.20
2022-07-25T09:17:07.058Z,32.30
2022-07-25T09:20:09.318Z,32.50
2022-07-25T09:22:55.017Z,32.50
2022-07-25T09:25:43.475Z,32.70
2022-07-25T09:28:29.471Z,32.80
2022-07-25T09:31:16.837Z,33.00
2022-07-25T09:34:08.135Z,33.20
2022-07-25T09:36:57.170Z,33.30
2022-07-25T09:39:48.484Z,33.20
2022-07-25T09:42:36.202Z,33.30
2022-07-25T09:45:21.771Z,33.50
2022-07-25T09:48:07.313Z,33.70
2022-07-25T09:50:53.058Z,33.70
2022-07-25T09:53:40.170Z,33.90
2022-07-25T09:56:25.889Z,33.90
2022-07-25T09:59:11.379Z,34.00
2022-07-25T10:02:05.301Z,33.90
2022-07-25T10:05:06.127Z,34.00
2022-07-25T10:07:54.124Z,33.90
2022-07-25T10:10:42.061Z,34.10
2022-07-25T10:13:34.363Z,34.20
2022-07-25T10:16:22.652Z,34.00
2022-07-25T10:19:08.521Z,34.10
2022-07-25T10:21:56.957Z,34.40
2022-07-25T10:24:47.512Z,34.60
2022-07-25T10:27:48.568Z,34.50
2022-07-25T10:30:38.003Z,34.50
2022-07-25T10:33:25.206Z,34.60
2022-07-25T10:36:11.531Z,34.70
2022-07-25T10:38:59.373Z,34.80
2022-07-25T10:41:52.464Z,34.90
2022-07-25T10:44:47.565Z,34.60
2022-07-25T10:47:42.736Z,34.30
2022-07-25T10:50:53.448Z,34.30
2022-07-25T10:53:46.255Z,34.50
2022-07-25T10:56:36.669Z,34.80
2022-07-25T10:59:41.054Z,34.80
2022-07-25T11:02:27.295Z,35.00
2022-07-25T11:05:12.893Z,35.00
2022-07-25T11:08:20.636Z,35.10
2022-07-25T11:11:04.438Z,35.40
2022-07-25T11:13:50.205Z,35.50
2022-07-25T11:16:36.207Z,35.60
2022-07-25T11:19:25.023Z,35.80
2022-07-25T11:22:11.714Z,35.80
2022-07-25T11:24:57.928Z,35.90
2022-07-25T11:27:43.478Z,35.50
2022-07-25T11:30:29.703Z,35.10
2022-07-25T11:33:17.772Z,34.90
2022-07-25T11:36:05.050Z,34.80
2022-07-25T11:38:51.255Z,35.10
2022-07-25T11:41:36.695Z,35.50
2022-07-25T11:44:32.873Z,35.80
2022-07-25T11:47:25.078Z,36.10
2022-07-25T11:50:14.812Z,36.00
2022-07-25T11:53:02.057Z,35.80
2022-07-25T11:55:47.906Z,35.60
2022-07-25T11:58:33.438Z,35.70
2022-07-25T12:01:19.399Z,36.10
2022-07-25T12:04:31.246Z,36.20
2022-07-25T12:07:16.925Z,36.30
2022-07-25T12:10:02.443Z,36.40
2022-07-25T12:12:51.244Z,36.30
2022-07-25T12:15:41.754Z,35.80
2022-07-25T12:18:28.166Z,35.70
2022-07-25T12:21:13.949Z,35.80
2022-07-25T12:23:59.588Z,35.80
2022-07-25T12:26:45.324Z,35.30
2022-07-25T12:29:30.831Z,35.00
2022-07-25T12:32:16.481Z,35.00
2022-07-25T12:35:02.626Z,35.40
2022-07-25T12:37:49.791Z,35.70
2022-07-25T12:40:37.401Z,36.20
2022-07-25T12:43:23.383Z,36.30
2022-07-25T12:46:09.312Z,36.30
2022-07-25T12:48:54.895Z,36.50
2022-07-25T12:51:40.486Z,36.60
2022-07-25T12:54:26.023Z,36.80
2022-07-25T12:57:12.467Z,36.70
2022-07-25T12:59:58.172Z,37.00
2022-07-25T13:02:44.024Z,37.10
2022-07-25T13:05:29.874Z,37.30
2022-07-25T13:08:15.834Z,37.40
2022-07-25T13:11:05.556Z,37.80
2022-07-25T13:13:51.644Z,37.40
2022-07-25T13:17:28.838Z,37.10
2022-07-25T13:21:05.764Z,36.80
2022-07-25T13:24:20.030Z,36.90
2022-07-25T13:27:12.070Z,36.90
2022-07-25T13:29:58.103Z,36.90
2022-07-25T13:32:43.897Z,37.00
2022-07-25T13:35:36.485Z,36.70
2022-07-25T13:38:24.133Z,36.50
2022-07-25T13:44:40.642Z,35.90
2022-07-25T13:47:30.280Z,35.70
2022-07-25T13:50:16.301Z,35.60
2022-07-25T13:53:02.065Z,35.70
2022-07-25T13:55:48.653Z,35.70
2022-07-25T13:58:34.205Z,35.80
2022-07-25T14:01:19.979Z,35.70
2022-07-25T14:04:05.755Z,35.60
2022-07-25T14:06:52.219Z,35.50
2022-07-25T14:09:38.772Z,35.50
2022-07-25T14:12:24.456Z,35.50
2022-07-25T14:15:10.739Z,35.60
2022-07-25T14:17:57.200Z,35.80
2022-07-25T14:20:43.934Z,35.80
2022-07-25T14:23:30.320Z,35.80
2022-07-25T14:26:15.894Z,36.00
2022-07-25T14:29:02.301Z,36.20
2022-07-25T14:31:47.904Z,36.30
2022-07-25T14:34:35.356Z,36.10
2022-07-25T14:37:22.286Z,36.00
2022-07-25T14:40:10.998Z,36.10
2022-07-25T14:42:56.600Z,36.30
2022-07-25T14:45:42.325Z,36.40
2022-07-25T14:48:28.251Z,36.50
2022-07-25T14:51:13.870Z,36.40
2022-07-25T14:53:59.521Z,36.10
2022-07-25T14:56:45.116Z,36.00
2022-07-25T14:59:30.904Z,35.70
2022-07-25T15:02:16.844Z,35.50
2022-07-25T15:05:02.534Z,35.30
2022-07-25T15:07:47.980Z,35.10
2022-07-25T15:10:33.780Z,35.10
2022-07-25T15:13:34.694Z,35.00
2022-07-25T15:16:20.263Z,35.20
2022-07-25T15:19:16.334Z,35.40
2022-07-25T15:22:03.246Z,35.30
2022-07-25T15:25:21.882Z,35.30
2022-07-25T15:27:54.511Z,35.20
2022-07-25T15:30:40.221Z,35.10
2022-07-25T15:33:26.152Z,35.00
2022-07-25T15:36:11.891Z,34.90
2022-07-25T15:38:57.501Z,34.80
2022-07-25T15:41:43.179Z,34.70
2022-07-25T15:44:28.797Z,34.50
2022-07-25T15:47:14.639Z,34.50
2022-07-25T15:50:00.573Z,34.60
2022-07-25T15:52:46.915Z,34.60
2022-07-25T15:55:33.538Z,34.60
2022-07-25T15:58:18.942Z,34.50
2022-07-25T16:01:04.551Z,34.20
2022-07-25T16:03:50.026Z,34.00
2022-07-25T16:06:36.174Z,33.80
2022-07-25T16:09:22.158Z,33.70
2022-07-25T16:12:08.180Z,33.60
2022-07-25T16:14:53.976Z,33.40
2022-07-25T16:17:39.507Z,33.30
2022-07-25T16:20:25.080Z,33.30
2022-07-25T16:23:10.927Z,33.20
2022-07-25T16:25:56.802Z,33.10
2022-07-25T16:28:42.730Z,33.10
2022-07-25T16:31:28.276Z,33.00
2022-07-25T16:34:13.732Z,33.00
2022-07-25T16:37:01.105Z,32.90
2022-07-25T16:39:46.833Z,32.90
2022-07-25T16:42:32.353Z,32.90
2022-07-25T16:45:17.884Z,33.00
2022-07-25T16:48:05.521Z,33.00
2022-07-25T16:50:51.618Z,33.20
2022-07-25T16:53:37.494Z,33.30
2022-07-25T16:56:23.196Z,33.30
2022-07-25T16:59:09.293Z,33.40
2022-07-25T17:01:55.378Z,33.30
2022-07-25T17:04:41.236Z,33.00
2022-07-25T17:07:27.012Z,32.90
2022-07-25T17:10:12.629Z,32.70
2022-07-25T17:12:58.362Z,32.50
2022-07-25T17:15:44.741Z,32.30
2022-07-25T17:18:30.173Z,32.30
2022-07-25T17:21:18.292Z,32.00
2022-07-25T17:24:04.164Z,32.00
2022-07-25T17:26:49.874Z,31.90
2022-07-25T17:29:36.198Z,31.80
2022-07-25T17:32:25.090Z,31.70
2022-07-25T17:35:15.041Z,31.60
2022-07-25T17:38:00.963Z,31.60
2022-07-25T17:40:46.442Z,31.50
2022-07-25T17:43:32.094Z,31.40
2022-07-25T17:46:17.729Z,31.30
2022-07-25T17:49:04.392Z,31.20
2022-07-25T17:51:50.180Z,31.20
2022-07-25T17:54:36.296Z,31.20
2022-07-25T17:57:26.336Z,31.10
2022-07-25T18:00:13.176Z,31.10
2022-07-25T18:02:59.001Z,31.00
2022-07-25T18:05:44.754Z,30.90
2022-07-25T18:08:41.782Z,30.80
2022-07-25T19:42:58.313Z,28.10
2022-07-25T20:09:11.091Z,27.50
2022-07-25T20:28:03.622Z,27.00
